METAR Data
IDs: Format: Raw Decoded Include TAF

Data at: 0556 UTC 03 Jul 2022

METAR for:KMOP (Mount Pleasant Muni, MI, US)
Text:KMOP 030555Z AUTO 00000KT 10SM BKN060 BKN080 OVC110 17/12 A3009 RMK AO2 T01670119 10241 20167 402780120
Temperature: 16.7°C ( 62°F)
Dewpoint: 11.9°C ( 53°F) [RH = 73%]
Pressure (altimeter):30.09 inches Hg (1019.0 mb)
Winds:calm
Visibility:10 or more sm (16+ km)
Ceiling:6000 feet AGL
Clouds: broken clouds at 6000 feet AGL, broken clouds at 8000 feet AGL, overcast cloud deck at 11000 feet AGL
QC Flag:automated observation with no human augmentation